createdAt,value
2019-03-09T00:02:12.364Z,70.80
2019-03-09T00:04:42.999Z,70.90
2019-03-09T00:07:13.609Z,71.00
2019-03-09T00:09:44.735Z,70.90
2019-03-09T00:12:17.044Z,71.00
2019-03-09T00:14:48.642Z,71.00
2019-03-09T00:17:19.344Z,70.80
2019-03-09T00:19:50.123Z,70.80
2019-03-09T00:22:23.039Z,70.90
2019-03-09T00:25:35.440Z,70.90
2019-03-09T00:28:28.336Z,70.90
2019-03-09T00:31:06.977Z,70.90
2019-03-09T00:33:37.577Z,71.00
2019-03-09T00:36:08.227Z,70.90
2019-03-09T00:38:38.799Z,70.90
2019-03-09T00:41:09.487Z,71.10
2019-03-09T00:43:40.401Z,71.00
2019-03-09T00:46:11.458Z,71.10
2019-03-09T00:48:42.005Z,71.00
2019-03-09T00:51:12.572Z,71.10
2019-03-09T00:53:43.940Z,71.00
2019-03-09T00:56:14.749Z,71.00
2019-03-09T00:58:45.284Z,71.10
2019-03-09T01:01:16.099Z,71.00
2019-03-09T01:03:46.740Z,71.10
2019-03-09T01:06:17.269Z,71.10
2019-03-09T01:08:47.992Z,71.10
2019-03-09T01:11:18.599Z,71.20
2019-03-09T01:13:49.275Z,71.20
2019-03-09T01:16:19.856Z,71.40
2019-03-09T01:18:50.427Z,71.30
2019-03-09T01:21:21.026Z,71.30
2019-03-09T01:23:51.985Z,71.30
2019-03-09T01:26:23.588Z,71.40
2019-03-09T01:28:54.219Z,71.30
2019-03-09T01:31:24.810Z,71.20
2019-03-09T01:33:55.469Z,71.10
2019-03-09T01:36:26.180Z,71.10
2019-03-09T01:38:57.180Z,71.20
2019-03-09T01:41:27.813Z,71.30
2019-03-09T01:43:58.488Z,71.30
2019-03-09T01:46:29.479Z,71.40
2019-03-09T01:49:00.023Z,71.40
2019-03-09T01:51:30.751Z,72.00
2019-03-09T01:54:01.433Z,71.40
2019-03-09T01:56:31.969Z,71.50
2019-03-09T01:59:02.638Z,71.40
2019-03-09T02:01:33.315Z,71.50
2019-03-09T02:04:04.021Z,71.90
2019-03-09T02:06:34.761Z,71.50
2019-03-09T02:09:06.639Z,71.50
2019-03-09T02:11:38.971Z,71.60
2019-03-09T02:14:09.567Z,71.50
2019-03-09T02:16:40.287Z,71.60
2019-03-09T02:19:10.886Z,71.50
2019-03-09T02:21:41.520Z,71.60
2019-03-09T02:24:13.225Z,71.50
2019-03-09T02:26:43.896Z,71.50
2019-03-09T02:29:14.540Z,71.50
2019-03-09T02:31:45.371Z,71.60
2019-03-09T02:34:15.971Z,71.50
2019-03-09T02:36:46.522Z,71.50
2019-03-09T02:39:43.552Z,71.10
2019-03-09T02:42:14.490Z,71.60
2019-03-09T02:44:45.468Z,71.50
2019-03-09T02:47:16.077Z,71.50
2019-03-09T02:49:46.855Z,71.50
2019-03-09T02:52:17.574Z,71.40
2019-03-09T02:54:48.220Z,71.80
2019-03-09T02:57:19.164Z,71.40
2019-03-09T02:59:50.033Z,71.30
2019-03-09T03:02:27.002Z,71.30
2019-03-09T03:04:57.661Z,71.30
2019-03-09T03:07:28.783Z,71.30
2019-03-09T03:10:00.802Z,71.40
2019-03-09T03:12:31.690Z,71.30
2019-03-09T03:15:02.213Z,71.20
2019-03-09T03:17:33.488Z,71.20
2019-03-09T03:20:04.519Z,71.20
2019-03-09T03:22:35.081Z,71.30
2019-03-09T03:25:06.066Z,71.30
2019-03-09T03:27:36.692Z,71.20
2019-03-09T03:30:07.403Z,71.30
2019-03-09T03:32:38.059Z,71.30
2019-03-09T03:35:08.995Z,71.30
2019-03-09T03:37:40.142Z,71.30
2019-03-09T03:40:11.968Z,71.30
2019-03-09T03:42:42.612Z,71.40
2019-03-09T03:45:13.432Z,71.50
2019-03-09T03:47:43.982Z,71.60
2019-03-09T03:50:15.053Z,71.60
2019-03-09T03:52:45.990Z,71.70
2019-03-09T03:55:17.021Z,71.70
2019-03-09T03:57:47.805Z,71.80
2019-03-09T04:00:19.006Z,71.70
2019-03-09T04:02:49.901Z,71.00
2019-03-09T04:05:20.469Z,71.60
2019-03-09T04:07:50.990Z,71.60
2019-03-09T04:10:21.858Z,71.70
2019-03-09T04:12:52.670Z,71.70
2019-03-09T04:15:23.724Z,71.80
2019-03-09T04:17:54.340Z,71.80
2019-03-09T04:20:25.002Z,72.00
2019-03-09T04:22:55.648Z,72.00
2019-03-09T04:25:26.319Z,72.10
2019-03-09T04:27:56.955Z,71.80
2019-03-09T04:30:27.594Z,71.80
2019-03-09T04:32:58.194Z,71.80
2019-03-09T04:35:28.824Z,72.00
2019-03-09T04:37:59.589Z,72.10
2019-03-09T04:40:30.173Z,72.20
2019-03-09T04:43:00.894Z,72.20
2019-03-09T04:45:31.519Z,72.20
2019-03-09T04:48:02.223Z,72.30
2019-03-09T04:50:33.001Z,72.30
2019-03-09T04:53:03.734Z,72.30
2019-03-09T04:55:34.245Z,72.20
2019-03-09T04:58:05.247Z,72.20
2019-03-09T05:00:35.938Z,72.20
2019-03-09T05:03:06.613Z,72.20
2019-03-09T05:05:37.189Z,72.20
2019-03-09T05:08:14.916Z,72.20
2019-03-09T05:10:52.721Z,72.20
2019-03-09T05:13:35.923Z,72.10
2019-03-09T05:16:06.661Z,72.00
2019-03-09T05:18:37.508Z,72.00
2019-03-09T05:21:08.192Z,72.00
2019-03-09T05:23:38.906Z,72.10
2019-03-09T05:26:09.661Z,72.10
2019-03-09T05:28:40.303Z,72.10
2019-03-09T05:31:10.860Z,72.10
2019-03-09T05:33:41.591Z,72.10
2019-03-09T05:36:12.205Z,72.00
2019-03-09T05:38:42.845Z,72.00
2019-03-09T05:41:13.383Z,72.00
2019-03-09T05:43:44.023Z,72.00
2019-03-09T05:46:14.553Z,72.00
2019-03-09T05:48:45.151Z,72.00
2019-03-09T05:51:15.791Z,72.00
2019-03-09T05:53:46.377Z,72.20
2019-03-09T05:56:16.931Z,72.00
2019-03-09T05:58:47.656Z,72.00
2019-03-09T06:01:18.267Z,72.20
2019-03-09T06:03:48.856Z,72.20
2019-03-09T06:06:20.216Z,72.20
2019-03-09T06:08:51.528Z,73.10
2019-03-09T06:11:22.193Z,72.30
2019-03-09T06:13:52.854Z,72.50
2019-03-09T06:16:23.466Z,72.70
2019-03-09T06:18:54.030Z,72.60
2019-03-09T06:21:24.938Z,72.70
2019-03-09T06:23:55.510Z,72.90
2019-03-09T06:26:26.221Z,72.90
2019-03-09T06:28:56.909Z,73.10
2019-03-09T06:31:27.542Z,73.10
2019-03-09T06:33:58.130Z,73.30
2019-03-09T06:37:08.913Z,73.10
2019-03-09T06:39:45.208Z,73.20
2019-03-09T06:42:36.767Z,73.30
2019-03-09T06:45:10.350Z,73.50
2019-03-09T06:47:41.366Z,73.50
2019-03-09T06:50:14.452Z,73.70
2019-03-09T06:52:45.153Z,73.80
2019-03-09T06:55:17.183Z,73.70
2019-03-09T06:57:47.734Z,73.70
2019-03-09T07:00:36.406Z,73.60
2019-03-09T07:03:09.001Z,73.60
2019-03-09T07:05:39.646Z,73.50
2019-03-09T07:08:10.193Z,73.70
2019-03-09T07:10:41.057Z,73.80
2019-03-09T07:13:11.785Z,73.80
2019-03-09T07:15:44.538Z,73.90
2019-03-09T07:18:20.434Z,74.00
2019-03-09T07:20:51.158Z,74.10
2019-03-09T07:23:21.741Z,73.90
2019-03-09T07:25:52.742Z,74.00
2019-03-09T07:28:23.497Z,74.20
2019-03-09T07:30:54.167Z,74.10
2019-03-09T07:33:24.863Z,74.20
2019-03-09T07:35:55.607Z,75.00
2019-03-09T07:38:27.403Z,74.30
2019-03-09T07:40:57.964Z,74.40
2019-03-09T07:43:28.676Z,74.40
2019-03-09T07:45:59.365Z,74.40
2019-03-09T07:48:29.878Z,74.50
2019-03-09T07:51:00.789Z,74.70
2019-03-09T07:53:50.532Z,74.60
2019-03-09T07:56:21.165Z,74.70
2019-03-09T07:58:51.839Z,74.70
2019-03-09T08:01:23.931Z,74.50
2019-03-09T08:03:55.568Z,74.50
2019-03-09T08:06:26.564Z,74.60
2019-03-09T08:08:57.473Z,74.70
2019-03-09T08:11:28.866Z,74.70
2019-03-09T08:13:59.840Z,74.90
2019-03-09T08:16:35.876Z,74.90
2019-03-09T08:19:04.393Z,74.70
2019-03-09T08:21:35.245Z,74.90
2019-03-09T08:24:06.222Z,74.80
2019-03-09T08:26:37.271Z,74.90
2019-03-09T08:29:08.326Z,74.70
2019-03-09T08:31:38.998Z,74.60
2019-03-09T08:34:09.897Z,74.50
2019-03-09T08:36:40.734Z,74.40
2019-03-09T08:39:11.701Z,74.10
2019-03-09T08:41:42.742Z,74.00
2019-03-09T08:44:16.085Z,73.90
2019-03-09T08:46:46.938Z,73.90
2019-03-09T08:49:17.726Z,74.10
2019-03-09T08:51:49.852Z,73.90
2019-03-09T08:54:20.728Z,74.10
2019-03-09T08:56:52.065Z,74.10
2019-03-09T08:59:22.863Z,74.30
2019-03-09T09:01:53.519Z,74.30
2019-03-09T09:04:24.199Z,74.50
2019-03-09T09:06:56.901Z,74.30
2019-03-09T09:09:27.509Z,74.30
2019-03-09T09:11:58.251Z,74.30
2019-03-09T09:14:28.805Z,74.10
2019-03-09T09:16:59.645Z,74.10
2019-03-09T09:19:30.210Z,74.00
2019-03-09T09:22:01.218Z,74.20
2019-03-09T09:24:32.845Z,74.10
2019-03-09T09:27:03.525Z,73.70
2019-03-09T09:29:34.113Z,73.50
2019-03-09T09:32:04.951Z,73.30
2019-03-09T09:34:35.501Z,72.80
2019-03-09T09:37:06.221Z,72.50
2019-03-09T09:39:36.791Z,72.40
2019-03-09T09:42:07.431Z,72.60
2019-03-09T09:44:38.183Z,72.30
2019-03-09T09:47:08.891Z,71.70
2019-03-09T09:49:39.502Z,71.50
2019-03-09T09:52:10.270Z,70.90
2019-03-09T09:54:40.946Z,69.00
2019-03-09T09:57:11.607Z,69.30
2019-03-09T09:59:42.315Z,69.50
2019-03-09T10:02:13.916Z,69.50
2019-03-09T10:04:44.546Z,69.00
2019-03-09T10:07:15.259Z,68.90
2019-03-09T10:09:45.900Z,68.40
2019-03-09T10:12:17.996Z,68.70
2019-03-09T10:14:49.184Z,68.30
2019-03-09T10:17:19.930Z,69.10
2019-03-09T10:19:50.580Z,69.60
2019-03-09T10:22:21.173Z,69.90
2019-03-09T10:24:51.819Z,70.00
2019-03-09T10:27:22.845Z,70.20
2019-03-09T10:29:53.545Z,70.20
2019-03-09T10:32:24.093Z,70.30
2019-03-09T10:34:55.751Z,70.30
2019-03-09T10:37:27.434Z,69.60
2019-03-09T10:39:58.052Z,69.20
2019-03-09T10:42:28.643Z,69.10
2019-03-09T10:44:59.615Z,69.10
2019-03-09T10:47:30.360Z,69.30
2019-03-09T10:50:01.350Z,68.70
2019-03-09T10:52:32.035Z,68.70
2019-03-09T10:55:02.550Z,68.80
2019-03-09T10:57:33.356Z,68.80
2019-03-09T11:00:04.931Z,69.00
2019-03-09T11:02:37.725Z,68.90
2019-03-09T11:05:09.523Z,67.90
2019-03-09T11:07:41.498Z,67.00
2019-03-09T11:10:12.222Z,66.20
2019-03-09T11:12:43.385Z,66.40
2019-03-09T11:15:14.191Z,65.70
2019-03-09T11:17:44.982Z,65.40
2019-03-09T11:20:15.822Z,65.00
2019-03-09T11:22:46.562Z,65.50
2019-03-09T11:25:17.234Z,65.10
2019-03-09T11:27:47.841Z,64.80
2019-03-09T11:30:20.489Z,65.40
2019-03-09T11:32:51.239Z,64.70
2019-03-09T11:35:21.800Z,65.80
2019-03-09T11:37:52.820Z,66.30
2019-03-09T11:40:23.625Z,66.80
2019-03-09T11:42:54.693Z,66.90
2019-03-09T11:45:25.318Z,67.20
2019-03-09T11:47:56.026Z,67.10
2019-03-09T11:50:26.593Z,67.20
2019-03-09T11:52:57.263Z,66.50
2019-03-09T11:55:27.959Z,66.90
2019-03-09T11:57:58.749Z,67.00
2019-03-09T12:00:31.949Z,66.80
2019-03-09T12:03:02.505Z,66.40
2019-03-09T12:05:33.063Z,66.00
2019-03-09T12:08:03.704Z,65.80
2019-03-09T12:10:34.377Z,65.70
2019-03-09T12:13:05.711Z,65.20
2019-03-09T12:15:36.277Z,65.00
2019-03-09T12:18:06.815Z,64.40
2019-03-09T12:20:37.537Z,64.10
2019-03-09T12:23:22.170Z,63.70
2019-03-09T12:25:53.088Z,63.50
2019-03-09T12:28:23.708Z,63.20
2019-03-09T12:30:54.402Z,62.70
2019-03-09T12:33:25.928Z,61.80
2019-03-09T12:35:56.603Z,61.50
2019-03-09T12:38:28.252Z,60.60
2019-03-09T12:40:58.884Z,60.30
2019-03-09T12:43:29.718Z,59.80
2019-03-09T12:46:00.436Z,59.10
2019-03-09T12:48:31.725Z,59.10
2019-03-09T12:51:02.450Z,58.80
2019-03-09T12:53:33.165Z,58.90
2019-03-09T12:56:05.441Z,58.60
2019-03-09T12:58:36.188Z,58.20
2019-03-09T13:01:06.808Z,58.10
2019-03-09T13:03:37.444Z,58.00
2019-03-09T13:06:08.180Z,57.40
2019-03-09T13:08:38.744Z,56.90
2019-03-09T13:11:09.576Z,56.90
2019-03-09T13:13:40.251Z,56.80
2019-03-09T13:16:11.071Z,56.60
2019-03-09T13:18:41.796Z,56.80
2019-03-09T13:21:12.493Z,57.30
2019-03-09T13:23:43.209Z,57.40
2019-03-09T13:26:13.961Z,57.50
2019-03-09T13:28:44.612Z,57.60
2019-03-09T13:31:15.194Z,57.60
2019-03-09T13:33:45.846Z,57.70
2019-03-09T13:36:16.464Z,58.30
2019-03-09T13:38:47.165Z,58.00
2019-03-09T13:41:17.834Z,58.20
2019-03-09T13:43:48.635Z,58.30
2019-03-09T13:46:19.277Z,58.50
2019-03-09T13:48:50.039Z,58.60
2019-03-09T13:51:20.851Z,58.80
2019-03-09T13:53:52.031Z,59.20
2019-03-09T13:56:22.679Z,59.30
2019-03-09T13:58:54.327Z,59.50
2019-03-09T14:01:25.941Z,59.60
2019-03-09T14:03:56.873Z,59.80
2019-03-09T14:06:27.493Z,60.20
2019-03-09T14:08:58.124Z,60.20
2019-03-09T14:11:29.140Z,60.30
2019-03-09T14:13:59.831Z,60.50
2019-03-09T14:16:30.853Z,60.70
2019-03-09T14:19:01.556Z,61.60
2019-03-09T14:21:32.297Z,60.80
2019-03-09T14:24:02.968Z,60.90
2019-03-09T14:26:33.710Z,61.00
2019-03-09T14:29:04.436Z,61.20
2019-03-09T14:31:37.382Z,61.30
2019-03-09T14:34:08.020Z,61.20
2019-03-09T14:36:38.709Z,61.20
2019-03-09T14:39:09.556Z,61.10
2019-03-09T14:41:40.487Z,61.10
2019-03-09T14:44:11.129Z,61.00
2019-03-09T14:46:41.926Z,60.80
2019-03-09T14:49:12.688Z,60.70
2019-03-09T14:51:43.299Z,61.50
2019-03-09T14:54:13.879Z,60.70
2019-03-09T14:56:44.417Z,60.90
2019-03-09T14:59:15.023Z,60.80
2019-03-09T15:01:45.746Z,61.00
2019-03-09T15:04:16.381Z,61.10
2019-03-09T15:06:47.089Z,61.30
2019-03-09T15:09:17.805Z,61.60
2019-03-09T15:11:48.671Z,61.90
2019-03-09T15:14:19.438Z,62.20
2019-03-09T15:16:50.392Z,62.40
2019-03-09T15:19:21.087Z,62.40
2019-03-09T15:21:51.673Z,62.50
2019-03-09T15:24:22.350Z,62.50
2019-03-09T15:26:52.943Z,62.60
2019-03-09T15:29:23.565Z,62.80
2019-03-09T15:31:54.178Z,63.00
2019-03-09T15:34:24.861Z,62.80
2019-03-09T15:36:55.767Z,63.20
2019-03-09T15:39:26.489Z,63.40
2019-03-09T15:41:57.170Z,63.20
2019-03-09T15:44:27.815Z,63.00
2019-03-09T15:46:58.526Z,63.00
2019-03-09T15:49:29.251Z,63.00
2019-03-09T15:52:02.467Z,63.00
2019-03-09T15:54:34.161Z,63.20
2019-03-09T15:57:04.767Z,63.00
2019-03-09T15:59:35.474Z,63.10
2019-03-09T16:02:10.503Z,63.30
2019-03-09T16:04:41.167Z,63.60
2019-03-09T16:07:11.787Z,63.90
2019-03-09T16:09:42.774Z,63.80
2019-03-09T16:12:13.724Z,63.70
2019-03-09T16:14:44.485Z,64.00
2019-03-09T16:17:15.055Z,64.20
2019-03-09T16:19:45.719Z,64.30
2019-03-09T16:22:16.362Z,64.50
2019-03-09T16:24:46.945Z,65.00
2019-03-09T16:27:17.627Z,65.10
2019-03-09T16:29:48.257Z,64.90
2019-03-09T16:32:19.183Z,65.00
2019-03-09T16:34:49.792Z,65.40
2019-03-09T16:37:20.555Z,65.40
2019-03-09T16:39:52.249Z,65.60
2019-03-09T16:42:22.927Z,65.70
2019-03-09T16:44:53.618Z,66.10
2019-03-09T16:47:24.207Z,66.50
2019-03-09T16:49:54.861Z,66.80
2019-03-09T16:52:25.596Z,67.10
2019-03-09T16:54:56.176Z,67.20
2019-03-09T16:57:26.728Z,67.40
2019-03-09T16:59:57.471Z,67.60
2019-03-09T17:02:28.492Z,67.60
2019-03-09T17:04:59.514Z,67.60
2019-03-09T17:07:30.869Z,67.70
2019-03-09T17:10:07.616Z,67.80
2019-03-09T17:12:38.536Z,68.10
2019-03-09T17:15:10.641Z,68.10
2019-03-09T17:17:41.280Z,68.40
2019-03-09T17:20:12.145Z,68.60
2019-03-09T17:22:42.937Z,68.60
2019-03-09T17:25:13.818Z,68.50
2019-03-09T17:27:44.560Z,68.50
2019-03-09T17:30:16.430Z,68.50
2019-03-09T17:32:47.130Z,68.30
2019-03-09T17:35:18.041Z,68.40
2019-03-09T17:37:48.775Z,68.50
2019-03-09T17:40:19.469Z,68.20
2019-03-09T17:42:50.217Z,68.20
2019-03-09T17:45:21.171Z,68.20
2019-03-09T17:47:51.834Z,68.10
2019-03-09T17:50:22.490Z,67.90
2019-03-09T17:52:53.145Z,67.90
2019-03-09T17:55:23.845Z,68.70
2019-03-09T17:57:55.526Z,68.00
2019-03-09T18:00:26.794Z,68.20
2019-03-09T18:02:57.349Z,68.50
2019-03-09T18:05:28.068Z,68.70
2019-03-09T18:07:58.773Z,68.70
2019-03-09T18:10:33.451Z,68.60
2019-03-09T18:13:04.094Z,68.60
2019-03-09T18:15:34.849Z,68.60
2019-03-09T18:18:05.603Z,68.60
2019-03-09T18:20:36.453Z,68.70
2019-03-09T18:23:07.134Z,68.50
2019-03-09T18:25:37.707Z,69.00
2019-03-09T18:28:08.406Z,69.20
2019-03-09T18:30:39.020Z,69.40
2019-03-09T18:33:09.716Z,69.60
2019-03-09T18:35:41.774Z,69.60
2019-03-09T18:38:12.761Z,69.60
2019-03-09T18:40:43.432Z,69.70
2019-03-09T18:43:14.001Z,69.70
2019-03-09T18:45:44.531Z,69.60
2019-03-09T18:48:15.230Z,69.60
2019-03-09T18:50:45.872Z,69.60
2019-03-09T18:53:16.843Z,69.70
2019-03-09T18:55:47.413Z,69.50
2019-03-09T18:58:18.127Z,69.40
2019-03-09T19:00:49.879Z,69.30
2019-03-09T19:03:20.473Z,69.20
2019-03-09T19:05:51.168Z,69.20
2019-03-09T19:08:21.732Z,69.20
2019-03-09T19:10:52.448Z,69.30
2019-03-09T19:13:23.211Z,69.40
2019-03-09T19:15:53.764Z,69.60
2019-03-09T19:18:24.515Z,69.60
2019-03-09T19:20:55.191Z,68.90
2019-03-09T19:23:25.706Z,69.50
2019-03-09T19:25:56.415Z,69.50
2019-03-09T19:31:08.805Z,69.30
2019-03-09T19:33:39.514Z,69.20
2019-03-09T19:36:10.203Z,69.10
2019-03-09T19:38:41.012Z,68.90
2019-03-09T19:41:11.687Z,68.70
2019-03-09T19:43:42.291Z,68.50
2019-03-09T19:46:13.095Z,68.20
2019-03-09T19:48:43.751Z,68.10
2019-03-09T19:51:15.439Z,67.80
2019-03-09T19:53:46.026Z,67.80
2019-03-09T19:56:16.682Z,67.70
2019-03-09T19:58:47.357Z,67.70
2019-03-09T20:01:17.986Z,67.70
2019-03-09T20:03:48.547Z,67.70
2019-03-09T20:06:19.299Z,67.80
2019-03-09T20:08:49.939Z,68.20
2019-03-09T20:11:20.609Z,68.50
2019-03-09T20:13:54.381Z,68.50
2019-03-09T20:16:25.023Z,68.40
2019-03-09T20:18:56.828Z,68.30
2019-03-09T20:21:27.552Z,68.00
2019-03-09T20:23:58.291Z,67.90
2019-03-09T20:26:29.345Z,67.80
2019-03-09T20:28:59.877Z,67.50
2019-03-09T20:31:30.595Z,67.40
2019-03-09T20:34:01.235Z,67.30
2019-03-09T20:36:31.997Z,67.30
2019-03-09T20:39:03.056Z,67.10
2019-03-09T20:41:35.400Z,67.00
2019-03-09T20:44:06.099Z,66.80
2019-03-09T20:46:42.080Z,66.70
2019-03-09T20:49:12.878Z,66.60
2019-03-09T20:51:44.692Z,66.60
2019-03-09T20:54:15.340Z,66.50
2019-03-09T20:56:45.977Z,66.60
2019-03-09T20:59:16.659Z,66.60
2019-03-09T21:01:47.245Z,66.70
2019-03-09T21:04:19.053Z,67.00
2019-03-09T21:06:49.823Z,67.10
2019-03-09T21:09:20.589Z,67.50
2019-03-09T21:11:51.339Z,68.60
2019-03-09T21:14:22.171Z,68.80
2019-03-09T21:16:52.965Z,70.20
2019-03-09T21:19:23.597Z,69.70
2019-03-09T21:21:54.403Z,70.00
2019-03-09T21:24:25.180Z,70.20
2019-03-09T21:26:56.183Z,71.00
2019-03-09T21:29:26.973Z,70.60
2019-03-09T21:31:57.732Z,70.80
2019-03-09T21:34:30.870Z,70.90
2019-03-09T21:37:01.557Z,71.20
2019-03-09T21:39:32.337Z,71.30
2019-03-09T21:42:03.278Z,71.30
2019-03-09T21:44:33.881Z,70.60
2019-03-09T21:47:04.787Z,71.60
2019-03-09T21:49:36.057Z,71.80
2019-03-09T21:52:06.629Z,71.90
2019-03-09T21:54:37.337Z,73.00
2019-03-09T21:57:09.216Z,72.50
2019-03-09T21:59:39.878Z,72.70
2019-03-09T22:02:10.501Z,72.70
2019-03-09T22:04:42.603Z,72.80
2019-03-09T22:07:13.383Z,72.90
2019-03-09T22:09:43.943Z,73.10
2019-03-09T22:12:16.055Z,73.40
2019-03-09T22:14:48.074Z,73.50
2019-03-09T22:17:18.769Z,73.70
2019-03-09T22:19:49.435Z,73.60
2019-03-09T22:22:20.233Z,73.80
2019-03-09T22:24:50.833Z,73.90
2019-03-09T22:27:21.499Z,74.10
2019-03-09T22:29:52.367Z,74.10
2019-03-09T22:32:23.030Z,74.10
2019-03-09T22:34:53.589Z,74.30
2019-03-09T22:37:24.300Z,74.40
2019-03-09T22:39:55.039Z,74.60
2019-03-09T22:42:25.605Z,74.70
2019-03-09T22:44:56.614Z,74.80
2019-03-09T22:47:27.473Z,74.90
2019-03-09T22:49:58.222Z,74.90
2019-03-09T22:52:28.820Z,75.00
2019-03-09T22:54:59.594Z,75.00
2019-03-09T22:57:30.307Z,75.20
2019-03-09T23:00:00.916Z,75.10
2019-03-09T23:02:33.484Z,75.00
2019-03-09T23:05:04.295Z,75.20
2019-03-09T23:07:35.175Z,75.50
2019-03-09T23:10:07.471Z,75.20
2019-03-09T23:12:38.532Z,75.30
2019-03-09T23:15:11.192Z,75.30
2019-03-09T23:17:42.096Z,75.20
2019-03-09T23:20:13.387Z,75.30
2019-03-09T23:22:44.093Z,75.20
2019-03-09T23:25:15.206Z,75.20
2019-03-09T23:27:45.791Z,75.40
2019-03-09T23:30:17.548Z,75.20
2019-03-09T23:32:48.924Z,75.20
2019-03-09T23:35:20.619Z,75.20
2019-03-09T23:37:51.332Z,75.20
2019-03-09T23:40:22.746Z,75.20
2019-03-09T23:42:53.501Z,75.40
2019-03-09T23:45:24.284Z,75.40
2019-03-09T23:47:55.155Z,75.40
2019-03-09T23:50:27.060Z,75.50
2019-03-09T23:52:57.750Z,75.50
2019-03-09T23:55:28.574Z,75.50
2019-03-09T23:57:59.275Z,75.50
